Time;durP1;ratioP1;P1;durP2;ratioP2;P2;SDS_P1;SDS_P2;PMS_P1;PMS_P2;Temp;Humidity;BMP_temperature;BMP_pressure;BME280_temperature;BME280_humidity;BME280_pressure;Samples;Min_cycle;Max_cycle;Signal;HPM_P1;HPM_P2
2022/09/26 00:01:13;;;;;;;8.65;6.95;;;12.00;86.70;;;;;;5018536;28;20474;-78
2022/09/26 00:03:41;;;;;;;9.60;7.28;;;11.90;86.80;;;;;;5018230;28;20040;-77
2022/09/26 00:06:08;;;;;;;8.73;6.93;;;11.80;87.00;;;;;;5018109;28;20033;-77
2022/09/26 00:08:35;;;;;;;8.70;6.70;;;11.80;86.90;;;;;;5018644;28;20049;-77
2022/09/26 00:11:04;;;;;;;8.30;6.78;;;11.70;86.60;;;;;;5018400;28;20032;-77
2022/09/26 00:13:31;;;;;;;7.63;6.22;;;11.70;86.70;;;;;;5018481;28;20128;-79
2022/09/26 00:15:57;;;;;;;7.35;5.55;;;11.60;86.50;;;;;;5017918;28;20544;-80
2022/09/26 00:18:23;;;;;;;8.60;6.93;;;11.70;86.80;;;;;;5018265;28;20121;-81
2022/09/26 00:20:49;;;;;;;7.90;7.10;;;11.70;86.90;;;;;;5018262;28;20073;-80
2022/09/26 00:23:15;;;;;;;7.45;6.18;;;11.70;87.00;;;;;;5017898;28;20025;-80
2022/09/26 00:25:49;;;;;;;8.23;6.82;;;11.80;87.00;;;;;;5018501;28;20393;-79
2022/09/26 00:28:15;;;;;;;8.70;7.15;;;11.80;87.00;;;;;;5018338;28;20033;-80
2022/09/26 00:30:41;;;;;;;9.52;7.15;;;11.80;87.10;;;;;;5018259;28;20026;-80
2022/09/26 00:33:07;;;;;;;6.60;5.93;;;11.80;87.10;;;;;;5018182;28;20085;-80
2022/09/26 00:35:33;;;;;;;7.18;5.93;;;11.80;87.20;;;;;;5018054;28;20018;-80
2022/09/26 00:37:58;;;;;;;7.10;6.20;;;11.90;87.40;;;;;;5018404;28;20124;-79
2022/09/26 00:40:26;;;;;;;8.15;6.78;;;11.90;87.60;;;;;;5018309;28;20073;-80
2022/09/26 00:42:56;;;;;;;8.25;6.70;;;11.90;87.30;;;;;;5018262;28;20363;-80
2022/09/26 00:45:29;;;;;;;8.55;6.35;;;12.00;87.20;;;;;;5018025;28;20117;-80
2022/09/26 00:48:03;;;;;;;8.15;6.20;;;12.00;87.20;;;;;;5018140;28;20117;-81
2022/09/26 00:50:33;;;;;;;8.23;6.70;;;11.90;86.80;;;;;;5018004;28;20030;-80
2022/09/26 00:53:05;;;;;;;6.90;5.35;;;11.80;86.70;;;;;;5018271;28;20172;-79
2022/09/26 00:55:37;;;;;;;6.28;5.50;;;11.80;86.80;;;;;;5018245;28;20025;-79
2022/09/26 00:58:17;;;;;;;6.90;5.97;;;11.80;86.90;;;;;;5018067;28;20022;-80
2022/09/26 01:00:45;;;;;;;7.88;6.22;;;11.80;86.90;;;;;;5014164;28;20022;-80
2022/09/26 01:03:12;;;;;;;6.25;5.35;;;11.80;86.70;;;;;;5014840;28;20061;-80
2022/09/26 01:05:38;;;;;;;5.75;5.00;;;11.80;86.60;;;;;;5015938;28;20045;-80
2022/09/26 01:08:04;;;;;;;8.45;6.18;;;11.70;86.90;;;;;;5014585;28;20026;-77
2022/09/26 01:10:31;;;;;;;7.25;6.30;;;11.80;87.00;;;;;;5014473;28;20044;-78
2022/09/26 01:13:00;;;;;;;6.28;5.50;;;11.70;87.00;;;;;;5014797;28;20046;-79
2022/09/26 01:15:25;;;;;;;5.38;4.70;;;11.70;86.90;;;;;;5014731;28;20029;-80
2022/09/26 01:17:51;;;;;;;6.13;4.80;;;11.70;87.00;;;;;;5014135;28;20024;-79
2022/09/26 01:20:39;;;;;;;6.32;5.15;;;11.70;86.90;;;;;;5014534;28;20037;-78
2022/09/26 01:23:35;;;;;;;6.97;5.53;;;11.70;86.90;;;;;;5014651;28;20022;-80
2022/09/26 01:26:15;;;;;;;7.13;5.38;;;11.80;87.00;;;;;;5014551;28;20041;-79
2022/09/26 01:28:53;;;;;;;6.13;5.53;;;11.70;87.10;;;;;;5014471;28;20030;-80
2022/09/26 01:31:29;;;;;;;7.32;5.75;;;11.70;87.40;;;;;;5014395;28;20500;-77
2022/09/26 01:34:06;;;;;;;8.65;6.72;;;11.80;87.70;;;;;;5014575;28;20064;-77
2022/09/26 01:36:49;;;;;;;6.88;6.18;;;11.70;87.60;;;;;;5014361;28;20386;-78
2022/09/26 01:39:37;;;;;;;7.90;6.50;;;11.80;87.80;;;;;;5014250;28;20356;-77
2022/09/26 01:42:18;;;;;;;7.18;5.38;;;11.80;87.70;;;;;;5014040;28;20029;-77
2022/09/26 01:44:49;;;;;;;9.40;6.22;;;11.80;87.70;;;;;;5014143;28;20383;-77
2022/09/26 01:47:34;;;;;;;7.30;5.80;;;11.80;87.70;;;;;;5014109;28;20029;-78
2022/09/26 01:50:16;;;;;;;7.95;6.45;;;11.80;87.70;;;;;;5014144;28;20026;-78
2022/09/26 01:52:58;;;;;;;7.82;6.15;;;11.80;87.80;;;;;;5013702;28;20034;-77
2022/09/26 01:55:29;;;;;;;6.65;5.43;;;11.70;87.90;;;;;;5013984;28;20026;-78
2022/09/26 01:58:06;;;;;;;9.30;6.75;;;11.80;87.90;;;;;;5013841;28;20096;-77
2022/09/26 02:00:35;;;;;;;8.05;6.50;;;11.70;87.80;;;;;;5013730;28;20028;-78
2022/09/26 02:03:04;;;;;;;7.18;5.70;;;11.70;87.80;;;;;;5014127;28;20348;-78
2022/09/26 02:05:38;;;;;;;6.30;5.20;;;11.70;88.10;;;;;;5013485;28;20037;-78
2022/09/26 02:08:11;;;;;;;7.38;5.47;;;11.60;88.10;;;;;;5013406;28;20045;-78
2022/09/26 02:10:48;;;;;;;5.63;4.65;;;11.70;88.40;;;;;;5012966;28;20065;-76
2022/09/26 02:13:24;;;;;;;7.38;4.43;;;11.60;88.30;;;;;;5013537;28;20054;-77
2022/09/26 02:15:55;;;;;;;5.45;4.40;;;11.60;88.20;;;;;;5013705;28;20449;-76
2022/09/26 02:18:36;;;;;;;5.65;4.53;;;11.50;88.30;;;;;;5013662;28;20076;-77
2022/09/26 02:21:11;;;;;;;5.45;4.07;;;11.60;88.40;;;;;;5013465;28;20030;-77
2022/09/26 02:23:37;;;;;;;5.83;4.67;;;11.60;88.40;;;;;;5013516;28;20037;-77
2022/09/26 02:26:03;;;;;;;5.53;4.57;;;11.60;88.30;;;;;;5014342;28;20038;-77
2022/09/26 02:28:30;;;;;;;4.93;4.18;;;11.50;87.80;;;;;;5013301;28;20022;-77
2022/09/26 02:31:00;;;;;;;4.75;3.92;;;11.40;88.20;;;;;;5013362;28;20026;-77
2022/09/26 02:33:27;;;;;;;4.50;3.92;;;11.40;88.30;;;;;;5013550;28;20022;-77
2022/09/26 02:35:53;;;;;;;4.43;3.90;;;11.40;88.20;;;;;;5012828;28;20030;-77
2022/09/26 02:38:25;;;;;;;6.85;4.38;;;11.40;88.10;;;;;;5013096;28;20057;-77
2022/09/26 02:41:17;;;;;;;4.80;3.90;;;11.40;87.70;;;;;;5012945;28;20081;-74
2022/09/26 02:44:13;;;;;;;6.00;3.70;;;11.40;87.90;;;;;;5013330;28;20036;-75
2022/09/26 02:47:04;;;;;;;4.40;3.88;;;11.50;88.20;;;;;;5013213;28;20482;-75
2022/09/26 02:49:50;;;;;;;5.88;4.15;;;11.50;88.10;;;;;;5012954;28;20593;-74
2022/09/26 02:52:40;;;;;;;3.92;3.50;;;11.60;87.80;;;;;;5013024;28;20091;-75
2022/09/26 02:55:11;;;;;;;5.28;3.58;;;11.60;87.80;;;;;;5012646;28;20054;-75
2022/09/26 02:57:53;;;;;;;4.75;3.40;;;11.60;87.50;;;;;;5020476;28;20443;-75
2022/09/26 03:00:29;;;;;;;3.63;3.30;;;11.60;87.60;;;;;;5012957;28;20025;-75
2022/09/26 03:03:14;;;;;;;3.50;2.97;;;11.60;87.80;;;;;;5013907;28;20409;-76
2022/09/26 03:05:43;;;;;;;3.53;2.85;;;11.60;87.80;;;;;;5012479;28;20030;-75
2022/09/26 03:08:28;;;;;;;6.72;3.75;;;11.70;87.90;;;;;;5012502;28;20037;-75
2022/09/26 03:10:58;;;;;;;5.65;3.45;;;11.70;87.50;;;;;;5009114;28;20018;-76
2022/09/26 03:13:25;;;;;;;3.42;2.90;;;11.70;87.40;;;;;;5012242;28;20049;-75
2022/09/26 03:15:54;;;;;;;3.13;2.60;;;11.70;87.30;;;;;;5012318;28;20022;-77
2022/09/26 03:18:25;;;;;;;4.20;2.47;;;11.70;87.10;;;;;;5012469;28;20308;-78
2022/09/26 03:20:53;;;;;;;4.22;2.53;;;11.60;86.90;;;;;;5012414;28;20351;-76
2022/09/26 03:23:26;;;;;;;2.78;2.20;;;11.70;86.90;;;;;;5011874;28;20025;-76
2022/09/26 03:26:07;;;;;;;3.40;3.10;;;11.70;86.90;;;;;;5011797;28;20025;-76
2022/09/26 03:28:33;;;;;;;3.90;3.47;;;11.70;86.80;;;;;;5012086;28;20121;-76
2022/09/26 03:30:59;;;;;;;5.10;3.75;;;11.70;86.60;;;;;;5012071;28;20114;-76
2022/09/26 03:33:24;;;;;;;5.90;4.10;;;11.70;86.30;;;;;;5012252;28;20018;-77
2022/09/26 03:35:50;;;;;;;5.35;3.88;;;11.70;86.20;;;;;;5012361;28;20466;-77
2022/09/26 03:38:15;;;;;;;3.40;3.00;;;11.60;85.70;;;;;;5012109;28;20451;-77
2022/09/26 03:40:41;;;;;;;3.78;3.05;;;11.60;85.80;;;;;;5012067;28;20029;-76
2022/09/26 03:43:08;;;;;;;3.97;3.17;;;11.50;85.40;;;;;;5011852;28;20072;-76
2022/09/26 03:45:36;;;;;;;3.13;2.83;;;11.60;85.60;;;;;;5011549;28;20033;-76
2022/09/26 03:48:02;;;;;;;4.45;3.03;;;11.60;85.80;;;;;;5011793;28;20029;-76
2022/09/26 03:50:27;;;;;;;4.20;3.35;;;11.60;85.90;;;;;;5011804;28;20390;-77
2022/09/26 03:52:54;;;;;;;5.68;3.60;;;11.60;85.60;;;;;;5011419;28;20022;-77
2022/09/26 03:55:19;;;;;;;3.45;2.90;;;11.60;86.30;;;;;;5011808;28;20033;-77
2022/09/26 03:57:45;;;;;;;3.80;2.95;;;11.60;85.60;;;;;;5011771;28;20029;-77
2022/09/26 04:00:12;;;;;;;3.35;2.92;;;11.60;85.40;;;;;;5013110;28;20092;-76
2022/09/26 04:02:37;;;;;;;3.63;3.10;;;11.60;85.20;;;;;;5011882;28;20550;-76
2022/09/26 04:05:03;;;;;;;3.88;3.13;;;11.60;85.00;;;;;;5011688;28;20056;-75
2022/09/26 04:07:29;;;;;;;4.63;3.20;;;11.60;84.80;;;;;;5011072;28;20491;-76
2022/09/26 04:09:54;;;;;;;3.30;3.00;;;11.60;84.60;;;;;;5011497;28;20118;-76
2022/09/26 04:12:20;;;;;;;3.30;2.88;;;11.50;85.00;;;;;;5011414;28;20057;-75
2022/09/26 04:14:46;;;;;;;5.63;2.75;;;11.50;85.00;;;;;;5011588;28;20088;-75
2022/09/26 04:17:12;;;;;;;4.75;3.47;;;11.50;84.80;;;;;;5011844;28;20466;-75
2022/09/26 04:19:39;;;;;;;4.07;3.60;;;11.50;84.80;;;;;;5011615;28;20116;-75
2022/09/26 04:22:07;;;;;;;3.58;3.10;;;11.50;84.70;;;;;;5011504;28;20046;-75
2022/09/26 04:24:33;;;;;;;4.43;3.38;;;11.50;84.80;;;;;;5011406;28;20095;-76
2022/09/26 04:26:59;;;;;;;4.07;3.47;;;11.50;84.90;;;;;;5011141;28;20056;-76
2022/09/26 04:29:27;;;;;;;3.88;3.00;;;11.50;84.70;;;;;;5011793;28;20128;-76
2022/09/26 04:31:54;;;;;;;5.75;3.08;;;11.50;84.90;;;;;;5011460;28;20037;-76
2022/09/26 04:34:23;;;;;;;3.75;3.13;;;11.40;84.80;;;;;;5012210;28;20025;-77
2022/09/26 04:36:50;;;;;;;4.07;2.90;;;11.40;84.80;;;;;;5015071;28;20030;-77
2022/09/26 04:39:16;;;;;;;3.42;2.63;;;11.40;85.00;;;;;;5014978;28;20131;-77
2022/09/26 04:41:42;;;;;;;4.43;3.08;;;11.50;85.30;;;;;;5016116;28;20045;-77
2022/09/26 04:44:09;;;;;;;3.55;2.80;;;11.50;85.40;;;;;;5014850;28;20018;-77
2022/09/26 04:46:36;;;;;;;4.63;3.50;;;11.50;85.60;;;;;;5014432;28;20046;-77
2022/09/26 04:49:02;;;;;;;3.45;2.95;;;11.50;85.60;;;;;;5015141;28;20026;-79
2022/09/26 04:51:30;;;;;;;8.02;4.30;;;11.50;85.60;;;;;;5014523;28;20037;-79
2022/09/26 04:53:56;;;;;;;5.68;2.88;;;11.50;84.10;;;;;;5014685;28;20470;-77
2022/09/26 04:56:23;;;;;;;3.28;2.35;;;11.30;83.90;;;;;;5014308;28;20076;-76
2022/09/26 04:58:49;;;;;;;3.25;1.98;;;11.20;83.80;;;;;;5014887;28;20037;-77
2022/09/26 05:01:17;;;;;;;3.58;1.70;;;11.20;83.10;;;;;;5014655;28;20030;-77
2022/09/26 05:03:43;;;;;;;3.92;2.15;;;11.10;82.30;;;;;;5014683;28;20108;-75
2022/09/26 05:06:10;;;;;;;4.40;2.35;;;11.10;82.20;;;;;;5014398;28;20137;-76
2022/09/26 05:08:37;;;;;;;5.00;2.60;;;11.00;82.20;;;;;;5014391;28;20026;-76
2022/09/26 05:11:03;;;;;;;4.75;2.67;;;11.00;82.30;;;;;;5014552;28;20026;-77
2022/09/26 05:13:30;;;;;;;3.85;2.38;;;10.90;81.40;;;;;;5014622;28;20119;-77
2022/09/26 05:15:58;;;;;;;6.45;3.30;;;10.90;81.90;;;;;;5014220;28;20026;-78
2022/09/26 05:18:27;;;;;;;4.25;3.05;;;11.00;83.70;;;;;;5014187;28;20021;-77
2022/09/26 05:20:53;;;;;;;3.63;2.58;;;11.10;85.00;;;;;;5014168;28;20061;-76
2022/09/26 05:26:22;;;;;;;5.47;2.58;;;11.10;84.30;;;;;;5015401;28;20112;-78
2022/09/26 05:29:03;;;;;;;4.20;2.35;;;11.10;83.60;;;;;;5014111;28;20033;-76
2022/09/26 05:31:32;;;;;;;5.10;2.38;;;10.90;83.30;;;;;;5013396;28;20030;-78
2022/09/26 05:33:58;;;;;;;4.05;2.13;;;10.80;83.20;;;;;;5013625;28;20026;-78
2022/09/26 05:36:27;;;;;;;4.35;2.70;;;10.70;83.80;;;;;;5014244;28;20382;-79
2022/09/26 05:38:53;;;;;;;5.68;2.58;;;10.70;83.50;;;;;;5013768;28;20108;-79
2022/09/26 05:41:20;;;;;;;5.82;1.85;;;10.60;84.00;;;;;;5014050;28;20410;-79
2022/09/26 05:43:49;;;;;;;2.95;2.13;;;10.40;83.60;;;;;;5013910;28;20022;-78
2022/09/26 05:46:15;;;;;;;3.53;1.48;;;10.50;82.80;;;;;;5013002;28;20114;-78
2022/09/26 05:48:41;;;;;;;2.72;1.40;;;10.40;82.00;;;;;;5013660;28;20109;-79
2022/09/26 05:51:20;;;;;;;1.35;1.02;;;10.40;82.40;;;;;;5013728;28;20058;-79
2022/09/26 05:53:48;;;;;;;4.25;1.48;;;10.50;82.40;;;;;;5013790;28;20574;-77
2022/09/26 05:56:16;;;;;;;4.28;1.70;;;10.50;82.00;;;;;;5013705;28;20474;-78
2022/09/26 05:58:42;;;;;;;6.65;1.75;;;10.60;81.60;;;;;;5013414;28;20489;-78
2022/09/26 06:01:13;;;;;;;4.80;1.70;;;10.70;83.10;;;;;;5013195;28;20030;-76
2022/09/26 06:03:42;;;;;;;2.67;1.60;;;10.70;82.30;;;;;;5013704;28;20026;-77
2022/09/26 06:06:11;;;;;;;3.17;1.35;;;10.80;81.70;;;;;;5013624;28;20623;-77
2022/09/26 06:08:38;;;;;;;2.47;1.65;;;10.80;81.70;;;;;;5013259;28;20025;-76
2022/09/26 06:11:06;;;;;;;6.45;2.45;;;10.80;82.40;;;;;;5013448;28;20382;-77
2022/09/26 06:13:33;;;;;;;5.15;2.20;;;10.80;82.90;;;;;;5013141;28;20053;-75
2022/09/26 06:16:05;;;;;;;2.58;1.60;;;10.80;83.30;;;;;;5013394;28;20041;-77
2022/09/26 06:18:32;;;;;;;5.38;2.30;;;10.80;83.50;;;;;;5013915;28;20482;-77
2022/09/26 06:21:01;;;;;;;2.92;2.05;;;10.90;83.80;;;;;;5016014;28;20056;-77
2022/09/26 06:23:54;;;;;;;6.22;2.53;;;10.90;84.40;;;;;;5014377;28;20074;-77
2022/09/26 06:26:23;;;;;;;4.82;2.75;;;10.90;84.60;;;;;;5013033;28;20102;-78
2022/09/26 06:28:54;;;;;;;4.30;2.95;;;11.00;85.10;;;;;;5013210;28;20033;-78
2022/09/26 06:31:20;;;;;;;5.35;3.08;;;11.00;85.70;;;;;;5012946;28;20394;-77
2022/09/26 06:33:53;;;;;;;5.72;2.72;;;11.00;85.00;;;;;;5029715;28;20014;-77
2022/09/26 06:36:20;;;;;;;4.47;2.92;;;11.00;85.00;;;;;;5013393;28;20033;-77
2022/09/26 06:38:46;;;;;;;4.13;2.92;;;11.10;85.10;;;;;;5013134;28;20081;-79
2022/09/26 06:41:18;;;;;;;6.03;2.63;;;11.10;84.80;;;;;;5013305;28;20077;-80
2022/09/26 06:43:46;;;;;;;4.72;2.53;;;11.10;84.20;;;;;;5014277;28;20054;-81
2022/09/26 06:46:13;;;;;;;5.22;2.72;;;11.10;83.70;;;;;;5012678;28;20033;-80
2022/09/26 06:48:39;;;;;;;7.78;4.43;;;11.10;83.70;;;;;;5013056;28;20034;-78
2022/09/26 06:51:12;;;;;;;9.27;4.68;;;11.20;83.50;;;;;;5014957;28;20026;-79
2022/09/26 06:53:39;;;;;;;7.22;3.70;;;11.30;83.10;;;;;;5013308;28;20038;-80
2022/09/26 06:56:07;;;;;;;3.50;2.22;;;11.40;82.80;;;;;;5011406;28;20037;-80
2022/09/26 06:58:33;;;;;;;3.03;2.00;;;11.40;82.60;;;;;;5011680;28;20124;-79
2022/09/26 07:00:59;;;;;;;3.15;2.08;;;11.40;82.40;;;;;;5011731;28;20022;-79
2022/09/26 07:03:27;;;;;;;2.67;2.03;;;11.50;82.70;;;;;;5012446;28;20032;-79
2022/09/26 07:05:55;;;;;;;2.55;1.73;;;11.50;82.70;;;;;;5013698;28;20061;-80
2022/09/26 07:08:24;;;;;;;3.75;1.65;;;11.60;82.50;;;;;;5010856;28;20037;-78
2022/09/26 07:10:49;;;;;;;3.97;1.85;;;11.60;81.70;;;;;;5012174;28;20140;-79
2022/09/26 07:13:15;;;;;;;2.13;1.45;;;11.70;81.40;;;;;;5011875;28;20442;-78
2022/09/26 07:15:45;;;;;;;2.53;1.70;;;11.80;81.60;;;;;;5012346;28;20022;-79
2022/09/26 07:18:12;;;;;;;6.05;2.00;;;11.90;80.00;;;;;;5028687;28;20030;-78
2022/09/26 07:20:45;;;;;;;3.60;1.75;;;12.00;79.70;;;;;;5012223;28;20022;-80
2022/09/26 07:23:16;;;;;;;3.38;1.95;;;12.10;79.20;;;;;;5012298;28;20022;-80
2022/09/26 07:25:45;;;;;;;3.90;1.77;;;12.10;79.40;;;;;;5012185;28;20044;-79
2022/09/26 07:28:12;;;;;;;4.97;2.28;;;12.10;81.00;;;;;;5012018;28;20125;-79
2022/09/26 07:30:38;;;;;;;3.05;1.75;;;12.20;80.40;;;;;;5011886;28;20022;-80
2022/09/26 07:33:05;;;;;;;33.35;5.80;;;12.30;79.00;;;;;;5012190;28;20187;-77
2022/09/26 07:35:59;;;;;;;13.35;3.20;;;12.50;86.20;;;;;;5012341;28;20091;-82
2022/09/26 07:38:39;;;;;;;7.35;1.92;;;12.90;84.90;;;;;;5010016;28;20041;-84
2022/09/26 07:41:11;;;;;;;9.82;2.08;;;13.10;79.80;;;;;;5012233;28;20053;-81
2022/09/26 07:43:39;;;;;;;5.15;1.40;;;13.40;76.50;;;;;;5011963;28;20022;-81
2022/09/26 07:51:37;;;;;;;5.03;1.63;;;13.60;71.00;;;;;;5027801;28;20049;-81
2022/09/26 07:54:06;;;;;;;3.72;1.75;;;13.60;70.80;;;;;;5014476;28;20044;-83
2022/09/26 07:56:37;;;;;;;3.38;1.60;;;13.80;71.50;;;;;;5012032;28;20094;-83
2022/09/26 07:59:08;;;;;;;3.17;1.70;;;13.90;69.40;;;;;;5013733;28;20021;-82
2022/09/26 08:01:37;;;;;;;3.00;1.52;;;14.00;69.80;;;;;;5012189;28;20026;-80
2022/09/26 08:04:36;;;;;;;3.85;1.40;;;14.20;69.50;;;;;;5012381;28;20034;-81
2022/09/26 08:07:11;;;;;;;2.33;1.58;;;14.30;67.30;;;;;;5012856;28;20129;-81
2022/09/26 08:09:37;;;;;;;2.30;1.40;;;14.40;67.40;;;;;;5014652;28;20091;-81
2022/09/26 08:12:04;;;;;;;3.75;1.50;;;14.60;67.70;;;;;;5032377;28;20578;-81
2022/09/26 08:14:30;;;;;;;5.78;1.42;;;14.80;64.30;;;;;;5016319;28;20056;-82
2022/09/26 08:16:58;;;;;;;5.82;1.15;;;14.90;63.50;;;;;;5015645;28;20088;-81
2022/09/26 08:19:52;;;;;;;5.95;2.05;;;14.90;61.50;;;;;;5017269;28;20033;-82
2022/09/26 08:22:18;;;;;;;4.82;1.90;;;14.90;61.40;;;;;;5015116;28;20029;-81
2022/09/26 08:24:48;;;;;;;4.03;1.55;;;15.00;61.50;;;;;;5014825;28;20042;-84
2022/09/26 08:27:42;;;;;;;3.55;1.50;;;15.10;61.00;;;;;;5016934;28;20123;-81
2022/09/26 08:30:11;;;;;;;3.70;1.10;;;15.20;61.60;;;;;;5031225;28;20144;-80
2022/09/26 08:32:38;;;;;;;4.75;1.52;;;15.30;60.70;;;;;;5031696;28;20092;-77
2022/09/26 08:35:05;;;;;;;5.18;1.10;;;15.30;59.30;;;;;;5015124;28;20437;-76
2022/09/26 08:37:30;;;;;;;3.35;1.33;;;15.20;59.20;;;;;;5015121;28;20034;-77
2022/09/26 08:39:56;;;;;;;2.45;1.40;;;15.00;59.80;;;;;;5015013;28;20022;-76
2022/09/26 08:42:34;;;;;;;4.35;1.83;;;14.80;61.30;;;;;;5014599;28;20025;-76
2022/09/26 08:46:24;;;;;;;2.65;1.33;;;14.50;59.00;;;;;;5014744;28;20493;-76
2022/09/26 08:48:01;;;;;;;5.93;1.40;;;14.50;59.10;;;;;;5015765;28;20390;-77
2022/09/26 08:51:00;;;;;;;4.03;1.80;;;14.30;61.10;;;;;;5014956;28;20044;-75
2022/09/26 08:53:46;;;;;;;5.32;2.58;;;14.20;62.40;;;;;;5030910;28;20034;-78
2022/09/26 08:56:30;;;;;;;4.95;2.60;;;14.10;62.00;;;;;;5014640;28;20113;-76
2022/09/26 08:59:00;;;;;;;4.25;2.22;;;14.30;61.70;;;;;;5014419;28;20030;-76
2022/09/26 09:01:38;;;;;;;5.55;3.15;;;14.30;61.50;;;;;;5014431;28;20502;-77
2022/09/26 09:04:16;;;;;;;8.48;3.10;;;14.10;65.00;;;;;;5014675;28;20088;-77
2022/09/26 09:06:43;;;;;;;6.40;2.88;;;14.20;62.80;;;;;;5014483;28;20130;-77
2022/09/26 09:09:16;;;;;;;7.00;2.53;;;14.30;64.20;;;;;;5013932;28;20041;-77
2022/09/26 09:12:04;;;;;;;6.05;2.70;;;14.30;62.10;;;;;;5014090;28;21734;-77
2022/09/26 09:14:52;;;;;;;5.57;2.35;;;14.20;61.60;;;;;;5014024;28;20478;-77
2022/09/26 09:17:35;;;;;;;5.90;2.10;;;14.20;59.60;;;;;;5014128;28;20057;-77
2022/09/26 09:20:10;;;;;;;5.72;2.40;;;14.30;59.20;;;;;;5013562;28;20085;-78
2022/09/26 09:22:51;;;;;;;2.45;1.60;;;14.40;60.60;;;;;;5013837;28;20053;-76
2022/09/26 09:25:22;;;;;;;4.75;1.98;;;14.40;61.30;;;;;;5014195;28;20018;-76
2022/09/26 09:28:16;;;;;;;2.30;1.33;;;14.40;59.90;;;;;;5014262;28;20368;-76
2022/09/26 09:31:11;;;;;;;3.30;1.70;;;14.30;59.80;;;;;;5013494;28;20034;-76
2022/09/26 09:33:50;;;;;;;3.17;1.48;;;14.40;58.60;;;;;;5009674;28;20132;-77
2022/09/26 09:36:45;;;;;;;3.05;1.40;;;14.60;57.50;;;;;;5013943;28;20080;-75
2022/09/26 09:39:33;;;;;;;3.72;1.88;;;14.60;56.30;;;;;;4995059;28;20088;-77
2022/09/26 09:42:25;;;;;;;2.58;1.00;;;14.90;57.10;;;;;;5013688;28;20030;-76
2022/09/26 09:45:18;;;;;;;3.05;1.20;;;14.90;54.50;;;;;;5013266;28;20058;-78
2022/09/26 09:47:48;;;;;;;1.15;0.60;;;15.10;52.70;;;;;;5014173;28;20383;-77
2022/09/26 09:50:42;;;;;;;3.55;0.73;;;15.40;50.50;;;;;;5014059;28;20080;-78
2022/09/26 09:53:20;;;;;;;3.45;1.00;;;15.80;49.40;;;;;;5013804;28;20091;-76
2022/09/26 09:55:58;;;;;;;2.03;0.88;;;15.80;48.60;;;;;;5013473;28;20022;-76
2022/09/26 09:58:55;;;;;;;2.90;1.02;;;16.00;46.10;;;;;;5013742;28;20022;-77
2022/09/26 10:01:27;;;;;;;2.42;0.90;;;16.10;46.90;;;;;;5013623;28;20030;-75
2022/09/26 10:04:03;;;;;;;1.10;0.80;;;16.10;47.70;;;;;;5013320;28;20470;-78
2022/09/26 10:06:32;;;;;;;3.63;0.85;;;16.10;48.40;;;;;;5013369;28;20046;-76
2022/09/26 10:09:04;;;;;;;2.42;1.00;;;16.30;46.90;;;;;;5012558;28;20136;-76
2022/09/26 10:11:41;;;;;;;1.98;0.80;;;16.50;46.40;;;;;;5012894;28;20474;-77
2022/09/26 10:14:19;;;;;;;3.97;0.90;;;16.60;46.20;;;;;;5013087;28;20042;-77
2022/09/26 10:17:09;;;;;;;3.90;1.35;;;16.50;44.50;;;;;;5012738;28;20026;-78
2022/09/26 10:19:37;;;;;;;2.83;0.82;;;16.50;45.30;;;;;;5012854;28;20022;-76
2022/09/26 10:22:08;;;;;;;0.75;0.50;;;16.80;44.90;;;;;;5012491;28;20033;-76
2022/09/26 10:24:40;;;;;;;1.02;0.70;;;17.00;43.50;;;;;;5012623;28;20026;-75
2022/09/26 10:27:13;;;;;;;3.33;0.85;;;17.00;44.50;;;;;;5012806;28;20037;-76
2022/09/26 10:29:40;;;;;;;4.07;1.00;;;16.70;44.60;;;;;;5012643;28;20072;-78
2022/09/26 10:32:08;;;;;;;2.28;1.08;;;16.60;45.50;;;;;;5011806;28;20030;-79
2022/09/26 10:34:36;;;;;;;3.55;1.60;;;16.20;46.40;;;;;;5012638;28;20052;-78
2022/09/26 10:37:22;;;;;;;4.53;1.13;;;15.80;50.80;;;;;;5012706;28;20033;-78
2022/09/26 10:42:37;;;;;;;1.90;1.08;;;15.60;50.40;;;;;;5013085;28;20012;-77
2022/09/26 10:45:17;;;;;;;2.50;1.30;;;15.40;50.20;;;;;;5012252;28;20022;-80
2022/09/26 10:47:45;;;;;;;2.15;1.13;;;15.20;51.70;;;;;;5011790;28;20033;-77
2022/09/26 10:50:26;;;;;;;3.60;1.30;;;14.90;52.90;;;;;;5011672;28;20057;-74
2022/09/26 10:53:07;;;;;;;2.22;1.10;;;14.80;53.50;;;;;;5011767;28;20030;-78
2022/09/26 10:55:42;;;;;;;3.97;1.48;;;14.80;54.00;;;;;;5011841;28;20025;-75
2022/09/26 10:58:12;;;;;;;;;;;14.80;55.20;;;;;;5011697;28;20414;-76
2022/09/26 11:00:43;;;;;;;2.80;1.20;;;14.50;55.10;;;;;;5011241;28;20105;-76
2022/09/26 11:03:19;;;;;;;4.53;1.00;;;14.50;54.90;;;;;;5011472;28;20022;-76
2022/09/26 11:05:56;;;;;;;4.13;1.58;;;14.50;54.60;;;;;;5011882;28;20042;-74
2022/09/26 11:08:31;;;;;;;2.08;1.00;;;14.50;55.20;;;;;;5011852;28;20467;-75
2022/09/26 11:11:02;;;;;;;1.17;0.80;;;14.70;53.00;;;;;;5011758;28;20026;-79
2022/09/26 11:13:37;;;;;;;4.32;1.10;;;14.90;53.30;;;;;;5011979;28;20092;-81
2022/09/26 11:16:13;;;;;;;2.60;0.80;;;15.20;51.90;;;;;;5011941;28;20087;-76
2022/09/26 11:18:45;;;;;;;;;;;15.60;50.50;;;;;;5012024;28;20034;-77
2022/09/26 11:21:26;;;;;;;4.05;0.73;;;15.60;50.90;;;;;;5011973;28;19954;-80
2022/09/26 11:24:26;;;;;;;4.97;0.95;;;15.60;49.80;;;;;;5011823;28;20018;-79
2022/09/26 11:27:20;;;;;;;4.22;0.77;;;15.60;51.20;;;;;;5012748;28;20050;-76
2022/09/26 11:29:57;;;;;;;2.92;0.70;;;15.80;48.90;;;;;;5005764;28;20030;-82
2022/09/26 11:32:39;;;;;;;1.83;0.70;;;16.00;45.50;;;;;;5011648;28;20056;-76
2022/09/26 11:35:18;;;;;;;2.17;0.68;;;16.20;46.60;;;;;;5011918;28;20037;-78
2022/09/26 11:37:53;;;;;;;1.00;0.90;;;16.30;45.80;;;;;;5011880;28;20489;-77
2022/09/26 11:40:33;;;;;;;2.42;0.80;;;16.40;46.00;;;;;;5011838;28;20064;-78
2022/09/26 11:43:27;;;;;;;2.05;0.60;;;16.10;47.00;;;;;;5011995;28;20498;-77
2022/09/26 11:46:20;;;;;;;1.90;0.70;;;15.70;47.30;;;;;;5011725;28;20030;-75
2022/09/26 11:49:27;;;;;;;0.95;0.70;;;15.40;45.50;;;;;;5011779;28;20040;-75
2022/09/26 11:52:13;;;;;;;1.83;0.55;;;15.30;45.50;;;;;;5011621;28;20041;-74
2022/09/26 11:54:48;;;;;;;1.08;0.70;;;15.30;45.20;;;;;;5011722;28;20034;-76
2022/09/26 11:57:34;;;;;;;;;;;15.60;46.60;;;;;;5012483;28;20038;-79
2022/09/26 12:00:23;;;;;;;0.95;0.80;;;16.10;44.40;;;;;;5011761;28;19905;-76
2022/09/26 12:03:22;;;;;;;2.17;1.10;;;16.40;42.60;;;;;;5012961;28;20125;-76
2022/09/26 12:05:48;;;;;;;2.00;0.63;;;16.80;45.10;;;;;;5013504;28;20536;-77
2022/09/26 12:08:46;;;;;;;2.00;0.80;;;17.00;43.80;;;;;;5013296;28;20034;-75
2022/09/26 12:11:36;;;;;;;0.63;0.63;;;17.30;43.50;;;;;;5011225;28;20025;-75
2022/09/26 12:14:38;;;;;;;1.92;0.70;;;17.70;43.30;;;;;;5011698;28;20049;-75
2022/09/26 12:17:20;;;;;;;2.17;0.90;;;18.00;43.20;;;;;;4997144;28;20045;-77
2022/09/26 12:19:54;;;;;;;1.25;0.73;;;17.90;42.80;;;;;;5010140;28;20037;-76
2022/09/26 12:22:50;;;;;;;3.57;1.00;;;17.20;42.60;;;;;;5011450;28;20111;-75
2022/09/26 12:25:25;;;;;;;;;;;16.80;44.70;;;;;;5011505;28;20269;-74
2022/09/26 12:28:00;;;;;;;0.77;0.55;;;16.60;42.70;;;;;;5011077;28;19953;-76
2022/09/26 12:31:16;;;;;;;1.30;0.60;;;16.10;43.20;;;;;;5011720;28;20068;-77
2022/09/26 12:34:06;;;;;;;1.80;0.80;;;15.80;42.80;;;;;;4972613;28;20062;-76
2022/09/26 12:37:01;;;;;;;2.05;0.70;;;15.40;44.00;;;;;;5011536;28;20028;-77
2022/09/26 12:39:51;;;;;;;5.90;0.90;;;15.10;46.40;;;;;;5011494;28;20402;-77
2022/09/26 12:42:36;;;;;;;1.58;0.50;;;15.00;47.20;;;;;;5011283;28;20029;-75
2022/09/26 12:45:34;;;;;;;6.18;0.95;;;14.70;47.30;;;;;;5011100;28;20018;-76
2022/09/26 12:48:30;;;;;;;3.50;0.80;;;14.70;48.50;;;;;;5012465;28;20104;-77
2022/09/26 12:51:04;;;;;;;1.33;0.77;;;14.80;47.50;;;;;;5011089;28;20025;-75
2022/09/26 12:53:30;;;;;;;1.58;0.80;;;14.80;47.30;;;;;;5015850;28;20101;-76
2022/09/26 12:56:11;;;;;;;1.33;0.70;;;14.60;48.50;;;;;;5012837;28;20053;-76
2022/09/26 12:59:03;;;;;;;3.72;0.88;;;14.70;49.00;;;;;;5014780;28;20050;-76
2022/09/26 13:01:57;;;;;;;1.20;0.80;;;14.80;49.20;;;;;;5014622;28;20430;-76
2022/09/26 13:04:49;;;;;;;4.50;1.20;;;14.80;50.10;;;;;;5014503;28;20534;-77
2022/09/26 13:07:30;;;;;;;5.53;1.52;;;15.10;49.80;;;;;;5018124;28;20046;-76
2022/09/26 13:10:20;;;;;;;4.13;0.80;;;15.50;48.90;;;;;;5014525;28;20022;-75
2022/09/26 13:13:10;;;;;;;6.90;1.10;;;15.60;48.60;;;;;;5014730;28;20516;-76
2022/09/26 13:16:24;;;;;;;2.80;1.00;;;15.50;49.50;;;;;;5014450;28;20030;-76
2022/09/26 13:18:59;;;;;;;1.95;0.73;;;15.60;47.50;;;;;;5014240;28;20116;-77
2022/09/26 13:21:46;;;;;;;2.40;0.80;;;15.60;46.70;;;;;;5013935;28;20478;-77
2022/09/26 13:24:21;;;;;;;1.67;0.82;;;15.10;48.40;;;;;;5013296;28;20041;-76
2022/09/26 13:26:55;;;;;;;3.20;1.00;;;15.20;49.10;;;;;;5013902;28;20490;-76
2022/09/26 13:29:27;;;;;;;2.05;1.00;;;15.20;51.00;;;;;;5014208;28;20045;-79
2022/09/26 13:32:10;;;;;;;3.05;0.88;;;15.20;49.40;;;;;;5013900;28;20021;-78
2022/09/26 13:34:53;;;;;;;5.38;1.38;;;15.30;50.00;;;;;;5014102;28;20025;-79
2022/09/26 13:37:34;;;;;;;3.65;0.90;;;15.20;49.40;;;;;;5013441;28;20029;-79